Thorco Reef — VRIP4 — position and weather

sailwx.info

Track history (hours):
 
Tides and Currents Weather Stations Pressure Air Temp Water Temp Dewpoint Dewpoint Depression Visibility Wind Speed Wind Dir Waves Ship Positions

Thorco Reef

Last reported at 2018-Jan-23 13:29 UTC. Time now 2018-Jan-23 14:00 UTC.
Position N 51°22' E 002°39'.

Length 161 m; draft 6.9 m.

Type: Ship. MMSI: 477196900.

Date/timePositionNaut miles runAvg speedWind from/ knotsBaromVisibWave heightAir tempDewpointWater temp
2018-Jan-23 13:29N 51°22' E 002°39'510.7
2018-Jan-23 13:00N 51°22' E 002°31'4 8.5
2018-Jan-23 12:30N 51°20' E 002°24'611.4
2018-Jan-23 12:00N 51°18' E 002°16'612.4
2018-Jan-23 11:31N 51°15' E 002°07'612.3
2018-Jan-23 11:00N 51°12' E 001°59'612.5
2018-Jan-23 10:30N 51°09' E 001°50'612.4
2018-Jan-23 10:01N 51°05' E 001°43'612.3
2018-Jan-23 09:30N 51°00' E 001°36'612.3
2018-Jan-23 09:00N 50°56' E 001°29'713.0
2018-Jan-23 08:30N 50°49' E 001°26'1113.9
2018-Jan-23 07:44N 50°40' E 001°19'4813.9
2018-Jan-23 04:16N 50°21' E 000°09'414.2
2018-Jan-23 04:00N 50°20' E 000°03'714.3
2018-Jan-23 03:30N 50°18' W 000°07'714.5
2018-Jan-23 03:00N 50°16' W 000°18'814.9
2018-Jan-23 02:30N 50°13' W 000°29'815.4
2018-Jan-23 01:59N 50°11' W 000°41'1016.2
2018-Jan-23 01:21N 50°08' W 000°56'716.9
2018-Jan-23 00:55N 50°06' W 001°07'717.3
2018-Jan-23 00:30N 50°04' W 001°18'917.7
2018-Jan-23 00:00N 50°02' W 001°32'2418.2
2018-Jan-22 22:40N 49°56' W 002°08'317.7
2018-Jan-22 22:30N 49°55' W 002°12'917.3
2018-Jan-22 21:58N 49°52' W 002°27'816.8
2018-Jan-22 21:30N 49°50' W 002°38'2316.0
2018-Jan-22 20:03N 49°41' W 003°11'8714.6
2018-Jan-22 14:06N 48°57' W 005°06'113.2
2018-Jan-22 14:00N 48°56' W 005°08'713.1
2018-Jan-22 13:30N 48°53' W 005°16'713.0
2018-Jan-22 12:58N 48°49' W 005°26'  
2018-Jan-20 00:13N 37°55' W 016°20'313.8
2018-Jan-20 00:00N 37°52' W 016°21'813.6
2018-Jan-19 23:26N 37°45' W 016°23'1013.6
2018-Jan-19 22:43N 37°35' W 016°26'  
Track history (hours):
 
Tides and Currents Weather Stations Pressure Air Temp Water Temp Dewpoint Dewpoint Depression Visibility Wind Speed Wind Dir Waves Ship Positions

Thorco Reef

Last reported at 2018-Jan-23 13:29 UTC. Time now 2018-Jan-23 14:00 UTC.
Position N 51°22' E 002°39'.

Length 161 m; draft 6.9 m.

Type: Ship. MMSI: 477196900.

Date/timePositionNaut miles runAvg speedWind from/ knotsBaromVisibWave heightAir tempDewpointWater temp
2018-Jan-23 13:29N 51°22' E 002°39'510.7
2018-Jan-23 13:00N 51°22' E 002°31'4 8.5
2018-Jan-23 12:30N 51°20' E 002°24'611.4
2018-Jan-23 12:00N 51°18' E 002°16'612.4
2018-Jan-23 11:31N 51°15' E 002°07'612.3
2018-Jan-23 11:00N 51°12' E 001°59'612.5
2018-Jan-23 10:30N 51°09' E 001°50'612.4
2018-Jan-23 10:01N 51°05' E 001°43'612.3
2018-Jan-23 09:30N 51°00' E 001°36'612.3
2018-Jan-23 09:00N 50°56' E 001°29'713.0
2018-Jan-23 08:30N 50°49' E 001°26'1113.9
2018-Jan-23 07:44N 50°40' E 001°19'4813.9
2018-Jan-23 04:16N 50°21' E 000°09'414.2
2018-Jan-23 04:00N 50°20' E 000°03'714.3
2018-Jan-23 03:30N 50°18' W 000°07'714.5
2018-Jan-23 03:00N 50°16' W 000°18'814.9
2018-Jan-23 02:30N 50°13' W 000°29'815.4
2018-Jan-23 01:59N 50°11' W 000°41'1016.2
2018-Jan-23 01:21N 50°08' W 000°56'716.9
2018-Jan-23 00:55N 50°06' W 001°07'717.3
2018-Jan-23 00:30N 50°04' W 001°18'917.7
2018-Jan-23 00:00N 50°02' W 001°32'2418.2
2018-Jan-22 22:40N 49°56' W 002°08'317.7
2018-Jan-22 22:30N 49°55' W 002°12'917.3
2018-Jan-22 21:58N 49°52' W 002°27'816.8
2018-Jan-22 21:30N 49°50' W 002°38'2316.0
2018-Jan-22 20:03N 49°41' W 003°11'8714.6
2018-Jan-22 14:06N 48°57' W 005°06'113.2
2018-Jan-22 14:00N 48°56' W 005°08'713.1
2018-Jan-22 13:30N 48°53' W 005°16'713.0
2018-Jan-22 12:58N 48°49' W 005°26'  
2018-Jan-20 00:13N 37°55' W 016°20'313.8
2018-Jan-20 00:00N 37°52' W 016°21'813.6
2018-Jan-19 23:26N 37°45' W 016°23'1013.6
2018-Jan-19 22:43N 37°35' W 016°26'  

Dump ship's entire track history